Redondo, Washington
Current Conditions -  °F | °C
As of 10:53 AM on Friday 21 Nov 2014 (Local Time) from KSEA Reporting Station
Light Rain Light Rain  
Wind Chill: 51°   Ceiling: 3800
Heat Index: 51°   Visibility: 7mi
Dew Point: 46°   Wind: 7mph
Humidity: 83%   Direction: 140°SE
Pressure: 29.67"   Gusts: NA
Location:  47.34°N, 122.33°W
Report Text: KSEA 211853Z 14006KT 7SM -RA BKN038 OVC050 11/08 A2967 RMK AO2 SLP052 P0002 T01060078
Loading
Personal Weather Stations






























Interactive Weather Map New forecast layout! Learn more

10-Day Weather Forecast

Advertisements
Track Severe Weather on mobile